createdAt,value
2018-09-04T00:00:15.872Z,17.87
2018-09-04T00:02:43.323Z,21.40
2018-09-04T00:05:10.533Z,16.70
2018-09-04T00:07:37.630Z,16.70
2018-09-04T00:10:06.222Z,21.77
2018-09-04T00:12:33.322Z,21.37
2018-09-04T00:15:00.453Z,18.77
2018-09-04T00:17:27.573Z,22.07
2018-09-04T00:19:54.665Z,20.30
2018-09-04T00:22:21.788Z,22.00
2018-09-04T00:24:48.929Z,23.00
2018-09-04T00:27:16.073Z,19.40
2018-09-04T00:29:43.174Z,18.60
2018-09-04T00:32:10.359Z,21.00
2018-09-04T00:34:37.493Z,20.03
2018-09-04T00:37:04.620Z,19.53
2018-09-04T00:39:31.701Z,21.40
2018-09-04T00:41:58.886Z,15.57
2018-09-04T00:44:26.070Z,20.50
2018-09-04T00:46:53.228Z,18.70
2018-09-04T00:49:20.346Z,18.17
2018-09-04T00:51:47.473Z,21.27
2018-09-04T00:54:14.570Z,21.67
2018-09-04T00:56:41.845Z,20.40
2018-09-04T00:59:09.065Z,15.93
2018-09-04T01:01:36.384Z,17.27
2018-09-04T01:04:03.482Z,17.57
2018-09-04T01:06:30.690Z,20.67
2018-09-04T01:08:57.825Z,21.63
2018-09-04T01:11:24.933Z,25.63
2018-09-04T01:13:52.069Z,24.73
2018-09-04T01:16:19.153Z,28.77
2018-09-04T01:18:46.258Z,29.70
2018-09-04T01:21:13.349Z,34.87
2018-09-04T01:23:40.814Z,31.70
2018-09-04T01:26:07.912Z,38.43
2018-09-04T01:28:35.170Z,33.03
2018-09-04T01:31:02.301Z,34.90
2018-09-04T01:33:29.501Z,35.00
2018-09-04T01:35:56.594Z,29.53
2018-09-04T01:38:23.714Z,30.70
2018-09-04T01:40:50.806Z,32.30
2018-09-04T01:43:17.926Z,39.63
2018-09-04T01:45:45.048Z,46.47
2018-09-04T01:48:12.913Z,38.73
2018-09-04T01:50:40.417Z,30.40
2018-09-04T01:53:07.558Z,33.37
2018-09-04T01:55:34.665Z,36.87
2018-09-04T01:58:01.737Z,32.93
2018-09-04T02:00:28.906Z,34.17
2018-09-04T02:02:55.996Z,31.27
2018-09-04T02:05:23.146Z,35.97
2018-09-04T02:07:50.241Z,29.07
2018-09-04T02:10:17.353Z,28.90
2018-09-04T02:12:44.494Z,27.40
2018-09-04T02:15:11.600Z,40.73
2018-09-04T02:17:38.721Z,38.80
2018-09-04T02:20:05.850Z,39.70
2018-09-04T02:22:32.978Z,31.30
2018-09-04T02:25:00.090Z,35.77
2018-09-04T02:27:27.193Z,39.97
2018-09-04T02:29:54.339Z,43.13
2018-09-04T02:32:21.417Z,48.23
2018-09-04T02:34:48.562Z,77.67
2018-09-04T02:37:15.658Z,59.37
2018-09-04T02:39:42.762Z,81.77
2018-09-04T02:42:09.883Z,67.03
2018-09-04T02:44:37.025Z,76.50
2018-09-04T02:47:04.171Z,88.90
2018-09-04T02:49:31.245Z,119.37
2018-09-04T02:51:58.334Z,98.73
2018-09-04T02:54:25.442Z,209.33
2018-09-04T02:56:52.550Z,112.27
2018-09-04T02:59:19.721Z,104.13
2018-09-04T03:01:46.996Z,66.83
2018-09-04T03:04:14.135Z,64.27
2018-09-04T03:06:41.249Z,101.93
2018-09-04T03:09:08.358Z,104.73
2018-09-04T03:11:35.458Z,114.77
2018-09-04T03:14:02.650Z,55.40
2018-09-04T03:16:29.671Z,29.33
2018-09-04T03:18:56.765Z,22.27
2018-09-04T03:21:23.877Z,20.37
2018-09-04T03:23:50.997Z,18.80
2018-09-04T03:26:18.121Z,16.53
2018-09-04T03:28:45.282Z,17.30
2018-09-04T03:31:12.383Z,18.33
2018-09-04T03:33:39.535Z,20.83
2018-09-04T03:36:06.721Z,18.43
2018-09-04T03:38:34.073Z,14.27
2018-09-04T03:41:01.168Z,18.03
2018-09-04T03:43:28.274Z,17.50
2018-09-04T03:45:55.389Z,17.80
2018-09-04T03:48:22.648Z,15.80
2018-09-04T03:50:49.793Z,14.13
2018-09-04T03:53:16.917Z,15.93
2018-09-04T03:55:44.014Z,14.70
2018-09-04T03:58:11.138Z,14.60
2018-09-04T04:00:38.268Z,14.70
2018-09-04T04:03:05.405Z,19.83
2018-09-04T04:05:32.829Z,14.20
2018-09-04T04:07:59.966Z,19.97
2018-09-04T04:10:27.062Z,16.33
2018-09-04T04:12:54.209Z,16.07
2018-09-04T04:15:21.573Z,15.60
2018-09-04T04:17:48.671Z,13.77
2018-09-04T04:20:15.801Z,14.63
2018-09-04T04:22:42.914Z,12.67
2018-09-04T04:25:10.007Z,15.47
2018-09-04T04:27:37.174Z,11.93
2018-09-04T04:30:05.041Z,13.30
2018-09-04T04:32:32.190Z,10.43
2018-09-04T04:34:59.404Z,12.00
2018-09-04T04:37:26.600Z,12.70
2018-09-04T04:39:53.822Z,15.47
2018-09-04T04:42:20.841Z,15.77
2018-09-04T04:44:48.027Z,16.00
2018-09-04T04:47:15.175Z,19.50
2018-09-04T04:49:42.297Z,18.27
2018-09-04T04:52:09.410Z,19.97
2018-09-04T04:54:36.489Z,16.67
2018-09-04T04:57:03.721Z,17.40
2018-09-04T04:59:30.832Z,18.30
2018-09-04T05:01:57.934Z,19.43
2018-09-04T05:04:25.025Z,16.23
2018-09-04T05:06:52.191Z,20.67
2018-09-04T05:09:19.331Z,22.50
2018-09-04T05:11:46.449Z,13.40
2018-09-04T05:14:13.536Z,22.70
2018-09-04T05:16:40.663Z,23.00
2018-09-04T05:19:07.747Z,16.60
2018-09-04T05:21:34.880Z,14.50
2018-09-04T05:24:02.042Z,14.10
2018-09-04T05:26:29.182Z,12.87
2018-09-04T05:28:56.319Z,18.20
2018-09-04T05:31:24.862Z,17.50
2018-09-04T05:33:52.017Z,20.10
2018-09-04T05:36:19.210Z,23.43
2018-09-04T05:38:46.803Z,19.70
2018-09-04T05:41:13.934Z,24.50
2018-09-04T05:43:51.514Z,23.40
2018-09-04T05:46:52.519Z,28.60
2018-09-04T05:49:22.559Z,21.63
2018-09-04T05:51:49.726Z,21.03
2018-09-04T05:54:16.874Z,22.13
2018-09-04T05:56:44.014Z,23.50
2018-09-04T05:59:11.107Z,28.07
2018-09-04T06:01:38.247Z,20.80
2018-09-04T06:04:05.409Z,27.73
2018-09-04T06:06:32.553Z,24.50
2018-09-04T06:09:00.624Z,20.70
2018-09-04T06:11:27.892Z,21.10
2018-09-04T06:13:55.014Z,24.20
2018-09-04T06:16:22.115Z,23.77
2018-09-04T06:18:50.447Z,20.20
2018-09-04T06:21:17.550Z,20.47
2018-09-04T06:23:45.035Z,37.20
2018-09-04T06:26:12.155Z,25.73
2018-09-04T06:28:39.282Z,21.60
2018-09-04T06:31:06.394Z,24.37
2018-09-04T06:33:33.525Z,23.03
2018-09-04T06:36:00.697Z,22.63
2018-09-04T06:38:27.867Z,20.97
2018-09-04T06:40:55.319Z,20.87
2018-09-04T06:43:22.464Z,21.60
2018-09-04T06:45:49.633Z,23.87
2018-09-04T06:48:16.741Z,25.33
2018-09-04T06:50:43.916Z,22.70
2018-09-04T06:53:11.086Z,21.37
2018-09-04T06:55:38.200Z,24.07
2018-09-04T06:58:05.393Z,26.93
2018-09-04T07:00:32.520Z,20.73
2018-09-04T07:02:59.826Z,21.00
2018-09-04T07:05:27.126Z,26.40
2018-09-04T07:07:54.678Z,22.53
2018-09-04T07:10:21.822Z,26.23
2018-09-04T07:12:49.026Z,22.43
2018-09-04T07:15:16.200Z,23.90
2018-09-04T07:17:43.301Z,31.33
2018-09-04T07:20:10.435Z,23.03
2018-09-04T07:22:37.666Z,21.20
2018-09-04T07:25:04.891Z,23.10
2018-09-04T07:27:32.051Z,23.70
2018-09-04T07:29:59.154Z,20.97
2018-09-04T07:32:26.303Z,21.83
2018-09-04T07:34:53.430Z,21.40
2018-09-04T07:37:20.574Z,22.67
2018-09-04T07:39:47.717Z,31.57
2018-09-04T07:42:14.937Z,25.83
2018-09-04T07:44:42.020Z,24.63
2018-09-04T07:47:09.194Z,21.57
2018-09-04T07:49:36.283Z,22.50
2018-09-04T07:52:04.108Z,24.60
2018-09-04T07:54:31.245Z,25.70
2018-09-04T07:56:58.464Z,28.73
2018-09-04T07:59:27.768Z,20.93
2018-09-04T08:01:54.913Z,24.00
2018-09-04T08:04:22.061Z,21.83
2018-09-04T08:06:49.215Z,24.80
2018-09-04T08:09:16.325Z,26.80
2018-09-04T08:11:43.415Z,29.80
2018-09-04T08:14:10.886Z,30.63
2018-09-04T08:16:38.022Z,28.77
2018-09-04T08:19:05.130Z,28.43
2018-09-04T08:21:34.819Z,26.37
2018-09-04T08:24:05.354Z,25.30
2018-09-04T08:26:32.516Z,24.53
2018-09-04T08:28:59.687Z,29.60
2018-09-04T08:31:26.846Z,24.10
2018-09-04T08:33:54.107Z,26.90
2018-09-04T08:36:21.218Z,28.60
2018-09-04T08:38:48.849Z,26.10
2018-09-04T08:41:15.977Z,25.70
2018-09-04T08:43:43.250Z,28.23
2018-09-04T08:46:10.365Z,31.20
2018-09-04T08:48:37.522Z,32.03
2018-09-04T08:51:04.735Z,30.57
2018-09-04T08:53:31.927Z,26.30
2018-09-04T08:55:59.026Z,30.07
2018-09-04T08:58:26.298Z,26.80
2018-09-04T09:00:53.480Z,24.77
2018-09-04T09:03:20.694Z,23.73
2018-09-04T09:05:47.855Z,24.83
2018-09-04T09:08:15.003Z,25.23
2018-09-04T09:10:42.248Z,21.97
2018-09-04T09:13:09.446Z,25.03
2018-09-04T09:15:36.802Z,23.53
2018-09-04T09:18:04.215Z,20.62
2018-09-04T09:20:31.545Z,29.10
2018-09-04T09:22:59.331Z,26.10
2018-09-04T09:25:26.678Z,19.43
2018-09-04T09:28:00.574Z,18.73
2018-09-04T09:30:27.965Z,19.73
2018-09-04T09:32:55.076Z,17.80
2018-09-04T09:35:22.444Z,16.80
2018-09-04T09:37:49.631Z,14.27
2018-09-04T09:40:16.307Z,15.43
2018-09-04T09:42:43.486Z,12.27
2018-09-04T09:45:10.783Z,13.70
2018-09-04T09:47:52.784Z,14.23
2018-09-04T09:50:20.901Z,19.40
2018-09-04T09:52:48.679Z,16.07
2018-09-04T09:55:15.883Z,13.70
2018-09-04T09:57:42.970Z,13.73
2018-09-04T10:02:20.547Z,11.70
2018-09-04T10:04:47.911Z,12.43
2018-09-04T10:07:15.260Z,17.00
2018-09-04T10:09:42.590Z,11.20
2018-09-04T10:12:09.861Z,11.00
2018-09-04T10:14:36.993Z,12.53
2018-09-04T10:17:04.787Z,11.63
2018-09-04T10:19:32.077Z,10.50
2018-09-04T10:21:59.198Z,9.10
2018-09-04T10:24:26.663Z,13.73
2018-09-04T10:26:53.872Z,10.60
2018-09-04T10:29:21.013Z,11.90
2018-09-04T10:31:48.209Z,10.30
2018-09-04T10:34:15.954Z,10.80
2018-09-04T10:36:43.787Z,9.60
2018-09-04T10:39:16.753Z,10.37
2018-09-04T10:41:43.893Z,10.10
2018-09-04T10:44:11.076Z,8.03
2018-09-04T10:46:38.532Z,7.67
2018-09-04T10:49:05.709Z,8.33
2018-09-04T10:51:37.966Z,5.80
2018-09-04T10:54:05.512Z,5.20
2018-09-04T10:56:32.770Z,8.10
2018-09-04T10:59:00.067Z,6.10
2018-09-04T11:01:27.337Z,4.37
2018-09-04T11:03:55.250Z,5.00
2018-09-04T11:06:23.809Z,5.97
2018-09-04T11:08:50.997Z,7.17
2018-09-04T11:11:18.141Z,6.30
2018-09-04T11:13:45.582Z,6.63
2018-09-04T11:16:12.714Z,5.93
2018-09-04T11:18:39.831Z,6.00
2018-09-04T11:21:07.115Z,5.53
2018-09-04T11:23:34.378Z,6.50
2018-09-04T11:26:01.543Z,7.60
2018-09-04T11:28:28.837Z,11.23
2018-09-04T11:30:56.224Z,5.80
2018-09-04T11:33:23.413Z,8.30
2018-09-04T11:35:50.639Z,5.80
2018-09-04T11:38:17.793Z,6.00
2018-09-04T11:40:45.069Z,6.10
2018-09-04T11:43:12.564Z,6.23
2018-09-04T11:45:39.802Z,7.10
2018-09-04T11:48:07.218Z,6.60
2018-09-04T11:50:34.327Z,5.90
2018-09-04T11:53:01.505Z,6.63
2018-09-04T11:55:28.654Z,6.20
2018-09-04T11:57:55.934Z,7.10
2018-09-04T12:00:32.430Z,7.63
2018-09-04T12:02:59.621Z,6.73
2018-09-04T12:05:26.803Z,6.83
2018-09-04T12:07:53.987Z,8.90
2018-09-04T12:10:21.137Z,6.00
2018-09-04T12:12:48.325Z,9.13
2018-09-04T12:15:15.423Z,5.90
2018-09-04T12:17:42.544Z,6.50
2018-09-04T12:20:58.900Z,9.07
2018-09-04T12:23:25.902Z,6.03
2018-09-04T12:25:54.500Z,6.40
2018-09-04T12:28:21.622Z,8.53
2018-09-04T12:30:48.777Z,6.57
2018-09-04T12:33:15.924Z,5.90
2018-09-04T12:35:43.045Z,11.57
2018-09-04T12:38:11.856Z,6.40
2018-09-04T12:40:38.979Z,5.80
2018-09-04T12:43:06.086Z,5.27
2018-09-04T12:45:39.000Z,14.23
2018-09-04T12:48:06.236Z,5.70
2018-09-04T12:50:34.109Z,6.27
2018-09-04T12:53:01.388Z,6.20
2018-09-04T12:55:28.571Z,6.00
2018-09-04T12:57:55.708Z,6.40
2018-09-04T13:00:22.954Z,5.80
2018-09-04T13:02:50.229Z,6.00
2018-09-04T13:05:17.859Z,5.40
2018-09-04T13:07:45.057Z,7.27
2018-09-04T13:10:12.191Z,5.13
2018-09-04T13:12:39.398Z,6.30
2018-09-04T13:15:06.875Z,7.27
2018-09-04T13:17:34.040Z,5.37
2018-09-04T13:20:01.205Z,7.00
2018-09-04T13:22:28.335Z,4.73
2018-09-04T13:24:55.477Z,5.67
2018-09-04T13:27:22.614Z,7.87
2018-09-04T13:29:49.761Z,6.40
2018-09-04T13:32:17.174Z,6.53
2018-09-04T13:34:44.516Z,7.40
2018-09-04T13:37:11.621Z,6.93
2018-09-04T13:39:38.703Z,6.77
2018-09-04T13:42:06.426Z,6.87
2018-09-04T13:44:33.537Z,6.07
2018-09-04T13:47:00.811Z,6.00
2018-09-04T13:49:28.078Z,6.33
2018-09-04T13:51:55.198Z,6.20
2018-09-04T13:54:22.317Z,5.47
2018-09-04T13:56:49.454Z,6.13
2018-09-04T13:59:16.594Z,6.73
2018-09-04T14:01:43.798Z,5.40
2018-09-04T14:04:10.986Z,5.87
2018-09-04T14:06:38.130Z,6.07
2018-09-04T14:09:06.442Z,7.80
2018-09-04T14:11:33.730Z,6.13
2018-09-04T14:14:00.997Z,6.73
2018-09-04T14:16:28.019Z,6.90
2018-09-04T14:18:55.199Z,5.97
2018-09-04T14:21:22.349Z,6.03
2018-09-04T14:23:49.615Z,6.37
2018-09-04T14:26:16.899Z,8.13
2018-09-04T14:28:44.137Z,5.80
2018-09-04T14:31:11.314Z,5.93
2018-09-04T14:33:38.430Z,5.80
2018-09-04T14:36:05.677Z,7.23
2018-09-04T14:38:32.736Z,5.90
2018-09-04T14:40:59.870Z,7.27
2018-09-04T14:43:27.098Z,9.50
2018-09-04T14:45:54.254Z,6.43
2018-09-04T14:48:23.490Z,5.23
2018-09-04T14:50:50.642Z,8.03
2018-09-04T14:53:17.837Z,7.37
2018-09-04T14:55:44.925Z,11.17
2018-09-04T14:58:12.052Z,17.13
2018-09-04T15:00:39.193Z,6.17
2018-09-04T15:03:06.329Z,8.63
2018-09-04T15:05:36.917Z,7.67
2018-09-04T15:08:04.245Z,7.93
2018-09-04T15:10:31.376Z,5.90
2018-09-04T15:12:58.600Z,5.80
2018-09-04T15:15:25.803Z,5.97
2018-09-04T15:17:52.950Z,6.13
2018-09-04T15:20:20.156Z,6.30
2018-09-04T15:22:47.344Z,5.83
2018-09-04T15:25:14.599Z,6.03
2018-09-04T15:27:41.749Z,7.50
2018-09-04T15:30:08.985Z,5.30
2018-09-04T15:32:36.193Z,5.87
2018-09-04T15:35:03.408Z,8.27
2018-09-04T15:37:30.559Z,6.53
2018-09-04T15:39:57.708Z,5.60
2018-09-04T15:42:24.923Z,7.93
2018-09-04T15:44:52.047Z,5.80
2018-09-04T15:47:19.210Z,4.87
2018-09-04T15:49:47.345Z,9.40
2018-09-04T15:52:15.257Z,6.70
2018-09-04T15:54:42.466Z,6.97
2018-09-04T15:57:09.555Z,5.00
2018-09-04T15:59:36.810Z,11.20
2018-09-04T16:02:04.041Z,6.33
2018-09-04T16:04:31.202Z,5.17
2018-09-04T16:06:58.324Z,5.67
2018-09-04T16:09:25.661Z,5.60
2018-09-04T16:11:52.872Z,6.23
2018-09-04T16:14:20.018Z,5.00
2018-09-04T16:16:47.157Z,10.87
2018-09-04T16:19:14.274Z,5.90
2018-09-04T16:21:41.459Z,5.70
2018-09-04T16:24:08.908Z,5.83
2018-09-04T16:26:36.063Z,5.27
2018-09-04T16:29:03.154Z,6.70
2018-09-04T16:31:30.314Z,5.30
2018-09-04T16:33:57.425Z,5.63
2018-09-04T16:36:24.618Z,4.87
2018-09-04T16:38:51.729Z,5.83
2018-09-04T16:41:18.932Z,5.23
2018-09-04T16:43:46.289Z,5.80
2018-09-04T16:46:13.425Z,5.70
2018-09-04T16:48:40.605Z,4.93
2018-09-04T16:51:07.754Z,6.10
2018-09-04T16:53:34.862Z,6.27
2018-09-04T16:56:02.227Z,5.80
2018-09-04T16:58:30.358Z,5.80
2018-09-04T17:00:57.519Z,5.50
2018-09-04T17:03:24.687Z,6.03
2018-09-04T17:05:51.790Z,6.80
2018-09-04T17:08:18.918Z,6.10
2018-09-04T17:10:46.267Z,6.13
2018-09-04T17:13:13.491Z,7.13
2018-09-04T17:15:41.060Z,6.00
2018-09-04T17:18:08.256Z,5.70
2018-09-04T17:20:35.385Z,8.67
2018-09-04T17:23:02.541Z,9.00
2018-09-04T17:25:29.698Z,10.03
2018-09-04T17:27:56.907Z,8.37
2018-09-04T17:30:24.077Z,6.60
2018-09-04T17:32:52.215Z,6.07
2018-09-04T17:35:19.398Z,6.33
2018-09-04T17:37:46.662Z,6.97
2018-09-04T17:40:14.274Z,8.57
2018-09-04T17:42:41.514Z,6.77
2018-09-04T17:45:08.722Z,6.60
2018-09-04T17:47:35.883Z,6.30
2018-09-04T17:50:03.057Z,6.90
2018-09-04T17:52:30.172Z,6.70
2018-09-04T17:54:57.345Z,6.30
2018-09-04T17:57:24.506Z,7.57
2018-09-04T17:59:51.707Z,6.80
2018-09-04T18:02:18.921Z,6.20
2018-09-04T18:04:46.093Z,9.20
2018-09-04T18:07:13.282Z,9.93
2018-09-04T18:09:40.485Z,6.20
2018-09-04T18:12:07.647Z,6.40
2018-09-04T18:14:35.616Z,7.77
2018-09-04T18:17:03.790Z,7.97
2018-09-04T18:19:31.013Z,9.50
2018-09-04T18:21:58.240Z,7.87
2018-09-04T18:24:25.442Z,6.93
2018-09-04T18:26:52.678Z,7.73
2018-09-04T18:29:19.811Z,7.80
2018-09-04T18:31:46.994Z,6.87
2018-09-04T18:34:14.347Z,8.70
2018-09-04T18:36:41.530Z,6.60
2018-09-04T18:39:08.737Z,6.77
2018-09-04T18:41:37.411Z,6.93
2018-09-04T18:44:05.531Z,8.73
2018-09-04T18:46:32.739Z,7.67
2018-09-04T18:49:00.411Z,9.20
2018-09-04T18:51:27.577Z,5.87
2018-09-04T18:53:55.260Z,7.20
2018-09-04T18:56:22.462Z,6.97
2018-09-04T18:58:49.844Z,11.93
2018-09-04T19:01:17.054Z,7.10
2018-09-04T19:03:44.252Z,6.87
2018-09-04T19:06:11.448Z,7.37
2018-09-04T19:08:38.668Z,7.10
2018-09-04T19:11:05.891Z,6.30
2018-09-04T19:13:33.079Z,9.70
2018-09-04T19:16:00.199Z,6.80
2018-09-04T19:18:27.450Z,8.17
2018-09-04T19:20:54.687Z,7.23
2018-09-04T19:23:21.907Z,6.20
2018-09-04T19:25:49.144Z,7.53
2018-09-04T19:28:16.354Z,6.47
2018-09-04T19:30:43.542Z,10.90
2018-09-04T19:33:10.731Z,6.87
2018-09-04T19:35:37.915Z,8.53
2018-09-04T19:38:05.128Z,7.07
2018-09-04T19:40:32.309Z,6.70
2018-09-04T19:43:01.741Z,7.43
2018-09-04T19:45:29.145Z,7.73
2018-09-04T19:47:56.624Z,7.83
2018-09-04T19:50:23.958Z,6.70
2018-09-04T19:52:51.125Z,7.13
2018-09-04T19:55:18.441Z,6.60
2018-09-04T19:57:45.656Z,7.90
2018-09-04T20:00:12.985Z,6.87
2018-09-04T20:02:41.002Z,6.70
2018-09-04T20:05:08.926Z,6.27
2018-09-04T20:07:36.141Z,6.47
2018-09-04T20:10:03.411Z,8.73
2018-09-04T20:12:30.799Z,6.70
2018-09-04T20:14:57.975Z,7.93
2018-09-04T20:17:25.248Z,6.87
2018-09-04T20:19:52.726Z,7.23
2018-09-04T20:22:19.947Z,7.43
2018-09-04T20:24:47.242Z,7.97
2018-09-04T20:27:14.695Z,7.43
2018-09-04T20:29:42.060Z,7.23
2018-09-04T20:32:11.883Z,7.03
2018-09-04T20:34:39.303Z,6.30
2018-09-04T20:37:06.540Z,8.50
2018-09-04T20:39:33.749Z,7.23
2018-09-04T20:42:01.019Z,7.33
2018-09-04T20:44:28.292Z,7.23
2018-09-04T20:49:29.476Z,8.37
2018-09-04T20:51:56.680Z,11.93
2018-09-04T20:54:24.049Z,7.87
2018-09-04T20:57:26.802Z,7.50
2018-09-04T21:00:06.462Z,6.73
2018-09-04T21:02:45.522Z,11.50
2018-09-04T21:05:24.573Z,6.57
2018-09-04T21:10:07.789Z,6.80
2018-09-04T21:12:34.952Z,7.47
2018-09-04T21:15:02.159Z,7.37
2018-09-04T21:17:29.437Z,7.03
2018-09-04T21:19:56.680Z,7.83
2018-09-04T21:22:23.901Z,7.20
2018-09-04T21:24:51.252Z,7.70
2018-09-04T21:27:18.737Z,9.10
2018-09-04T21:29:45.913Z,7.03
2018-09-04T21:32:13.145Z,8.93
2018-09-04T21:34:40.837Z,6.87
2018-09-04T21:37:08.203Z,10.47
2018-09-04T21:39:35.443Z,7.30
2018-09-04T21:42:02.601Z,6.60
2018-09-04T21:44:29.804Z,9.23
2018-09-04T21:46:57.029Z,7.40
2018-09-04T21:49:24.278Z,6.77
2018-09-04T21:51:51.498Z,7.17
2018-09-04T21:54:18.671Z,7.60
2018-09-04T21:56:45.811Z,7.30
2018-09-04T21:59:12.985Z,7.93
2018-09-04T22:01:40.154Z,11.07
2018-09-04T22:04:07.365Z,8.73
2018-09-04T22:06:34.554Z,9.27
2018-09-04T22:09:01.745Z,7.73
2018-09-04T22:11:28.913Z,8.97
2018-09-04T22:13:56.054Z,7.23
2018-09-04T22:16:23.231Z,7.33
2018-09-04T22:18:50.390Z,9.30
2018-09-04T22:21:17.585Z,9.17
2018-09-04T22:23:44.707Z,7.40
2018-09-04T22:26:11.893Z,9.00
2018-09-04T22:28:39.176Z,7.73
2018-09-04T22:31:06.381Z,8.97
2018-09-04T22:33:33.516Z,8.50
2018-09-04T22:36:00.690Z,8.90
2018-09-04T22:38:27.813Z,13.40
2018-09-04T22:40:54.994Z,7.87
2018-09-04T22:43:22.144Z,7.90
2018-09-04T22:45:49.337Z,8.30
2018-09-04T22:48:16.478Z,8.30
2018-09-04T22:50:49.538Z,7.87
2018-09-04T22:53:16.629Z,7.63
2018-09-04T22:55:43.788Z,8.00
2018-09-04T22:58:10.994Z,9.57
2018-09-04T23:00:38.094Z,7.43
2018-09-04T23:03:05.727Z,7.90
2018-09-04T23:05:33.670Z,8.47
2018-09-04T23:08:00.872Z,8.13
2018-09-04T23:10:28.098Z,7.57
2018-09-04T23:12:55.282Z,8.57
2018-09-04T23:15:22.409Z,7.27
2018-09-04T23:17:49.551Z,6.90
2018-09-04T23:20:16.658Z,7.20
2018-09-04T23:22:43.979Z,7.70
2018-09-04T23:25:11.185Z,8.87
2018-09-04T23:27:38.314Z,7.33
2018-09-04T23:30:05.485Z,8.83
2018-09-04T23:32:32.644Z,7.30
2018-09-04T23:34:59.805Z,7.40
2018-09-04T23:37:26.973Z,13.43
2018-09-04T23:39:54.149Z,8.17
2018-09-04T23:42:21.243Z,7.47
2018-09-04T23:44:48.450Z,7.30
2018-09-04T23:47:15.597Z,10.40
2018-09-04T23:49:42.745Z,12.40
2018-09-04T23:52:09.847Z,9.23
2018-09-04T23:54:37.026Z,7.37
2018-09-04T23:57:04.281Z,8.00
2018-09-04T23:59:31.410Z,7.17
